createdAt,value
2019-03-22T00:02:11.566Z,1.12
2019-03-22T00:04:44.569Z,1.12
2019-03-22T00:07:17.517Z,0.90
2019-03-22T00:09:50.102Z,0.90
2019-03-22T00:12:22.611Z,0.84
2019-03-22T00:14:55.133Z,0.77
2019-03-22T00:17:27.626Z,0.90
2019-03-22T00:20:00.360Z,0.98
2019-03-22T00:22:32.910Z,1.00
2019-03-22T00:25:05.808Z,1.15
2019-03-22T00:27:38.378Z,1.16
2019-03-22T00:30:12.359Z,1.18
2019-03-22T00:32:44.867Z,1.07
2019-03-22T00:35:17.476Z,1.20
2019-03-22T00:37:50.349Z,1.14
2019-03-22T00:40:22.887Z,1.01
2019-03-22T00:42:55.555Z,0.93
2019-03-22T00:45:28.351Z,0.69
2019-03-22T00:48:00.839Z,0.73
2019-03-22T00:50:33.366Z,0.61
2019-03-22T00:53:05.937Z,0.63
2019-03-22T00:55:39.695Z,0.65
2019-03-22T00:58:12.261Z,0.59
2019-03-22T01:00:44.845Z,0.69
2019-03-22T01:03:17.350Z,1.01
2019-03-22T01:05:49.889Z,0.77
2019-03-22T01:08:22.510Z,0.67
2019-03-22T01:10:55.091Z,0.73
2019-03-22T01:13:27.584Z,0.68
2019-03-22T01:16:00.389Z,0.64
2019-03-22T01:18:34.035Z,0.66
2019-03-22T01:21:06.668Z,0.56
2019-03-22T01:23:39.463Z,0.39
2019-03-22T01:26:13.095Z,0.27
2019-03-22T01:28:45.587Z,0.33
2019-03-22T01:31:18.170Z,0.34
2019-03-22T01:33:50.668Z,0.26
2019-03-22T01:36:23.166Z,0.12
2019-03-22T01:38:55.659Z,0.11
2019-03-22T01:41:28.156Z,0.12
2019-03-22T01:44:00.734Z,0.07
2019-03-22T01:46:33.361Z,0.13
2019-03-22T01:49:06.100Z,0.10
2019-03-22T01:51:38.603Z,0.08
2019-03-22T01:54:12.336Z,0.11
2019-03-22T01:56:46.185Z,0.15
2019-03-22T01:59:18.721Z,0.12
2019-03-22T02:01:51.226Z,0.18
2019-03-22T02:04:23.810Z,0.16
2019-03-22T02:06:56.388Z,0.13
2019-03-22T02:09:28.952Z,0.07
2019-03-22T02:12:01.802Z,0.05
2019-03-22T02:14:34.336Z,0.14
2019-03-22T02:17:06.985Z,0.19
2019-03-22T02:19:39.806Z,0.08
2019-03-22T02:22:12.480Z,0.22
2019-03-22T02:24:45.052Z,0.07
2019-03-22T02:27:17.565Z,0.09
2019-03-22T02:29:50.452Z,0.07
2019-03-22T02:32:23.036Z,0.02
2019-03-22T02:34:55.535Z,-0.12
2019-03-22T02:37:28.120Z,-0.14
2019-03-22T02:40:00.691Z,-0.17
2019-03-22T02:42:33.209Z,-0.18
2019-03-22T02:45:07.255Z,-0.22
2019-03-22T02:47:40.152Z,-0.20
2019-03-22T02:50:18.535Z,-0.12
2019-03-22T02:52:47.579Z,-0.25
2019-03-22T02:55:20.104Z,-0.38
2019-03-22T02:57:52.613Z,-0.35
2019-03-22T03:00:25.188Z,-0.45
2019-03-22T03:02:58.029Z,-0.40
2019-03-22T03:05:30.527Z,-0.46
2019-03-22T03:08:03.196Z,-0.53
2019-03-22T03:10:35.787Z,-0.30
2019-03-22T03:13:08.394Z,-0.41
2019-03-22T03:15:40.904Z,-0.55
2019-03-22T03:18:13.673Z,-0.46
2019-03-22T03:20:46.185Z,-0.46
2019-03-22T03:23:19.223Z,-0.40
2019-03-22T03:25:52.038Z,-0.35
2019-03-22T03:28:36.090Z,-0.29
2019-03-22T03:30:58.847Z,-0.32
2019-03-22T03:33:31.426Z,-0.31
2019-03-22T03:36:04.045Z,-0.39
2019-03-22T03:38:36.861Z,-0.39
2019-03-22T03:41:09.537Z,-0.45
2019-03-22T03:43:42.121Z,-0.55
2019-03-22T03:46:14.644Z,-0.55
2019-03-22T03:48:47.150Z,-0.48
2019-03-22T03:51:19.765Z,-0.53
2019-03-22T03:53:52.287Z,-0.60
2019-03-22T03:56:24.808Z,-0.68
2019-03-22T03:58:57.312Z,-0.76
2019-03-22T04:01:29.990Z,-0.68
2019-03-22T04:04:02.489Z,-0.63
2019-03-22T04:06:35.032Z,-0.62
2019-03-22T04:09:10.131Z,-0.63
2019-03-22T04:11:42.723Z,-0.73
2019-03-22T04:14:15.307Z,-0.81
2019-03-22T04:16:48.015Z,-0.86
2019-03-22T04:19:20.699Z,-0.77
2019-03-22T04:21:53.531Z,-0.84
2019-03-22T04:24:26.119Z,-0.70
2019-03-22T04:26:59.914Z,-0.81
2019-03-22T04:29:32.738Z,-0.74
2019-03-22T04:32:05.361Z,-0.71
2019-03-22T04:34:37.935Z,-0.68
2019-03-22T04:37:11.976Z,-0.74
2019-03-22T04:39:44.742Z,-0.75
2019-03-22T04:42:17.349Z,-0.79
2019-03-22T04:44:50.072Z,-0.85
2019-03-22T04:47:23.907Z,-0.88
2019-03-22T04:49:57.833Z,-0.89
2019-03-22T04:52:30.631Z,-0.97
2019-03-22T04:55:04.488Z,-1.02
2019-03-22T04:57:38.680Z,-1.04
2019-03-22T05:00:12.519Z,-1.06
2019-03-22T05:02:46.336Z,-1.00
2019-03-22T05:05:20.778Z,-1.04
2019-03-22T05:07:54.549Z,-0.99
2019-03-22T05:10:28.399Z,-0.97
2019-03-22T05:13:03.596Z,-1.02
2019-03-22T05:15:36.843Z,-1.07
2019-03-22T05:18:09.916Z,-1.14
2019-03-22T05:20:44.172Z,-1.12
2019-03-22T05:23:18.076Z,-1.18
2019-03-22T05:25:53.228Z,-1.22
2019-03-22T05:28:27.918Z,-1.25
2019-03-22T05:31:40.815Z,-1.29
2019-03-22T05:34:13.630Z,-1.26
2019-03-22T05:36:46.177Z,-1.22
2019-03-22T05:39:18.728Z,-1.21
2019-03-22T05:41:51.638Z,-1.16
2019-03-22T05:44:24.213Z,-1.12
2019-03-22T05:46:56.941Z,-1.14
2019-03-22T05:49:29.905Z,-1.04
2019-03-22T05:52:02.443Z,-1.09
2019-03-22T05:54:35.099Z,-1.10
2019-03-22T05:57:13.134Z,-1.06
2019-03-22T05:59:43.094Z,-0.92
2019-03-22T06:02:15.757Z,-0.90
2019-03-22T06:04:48.264Z,-0.81
2019-03-22T06:07:20.769Z,-0.76
2019-03-22T06:09:53.277Z,-0.78
2019-03-22T06:12:25.869Z,-0.75
2019-03-22T06:14:58.430Z,-0.63
2019-03-22T06:17:30.934Z,-0.55
2019-03-22T06:20:03.538Z,-0.42
2019-03-22T06:22:36.126Z,-0.45
2019-03-22T06:25:08.735Z,-0.43
2019-03-22T06:27:41.243Z,-0.26
2019-03-22T06:30:14.104Z,-0.25
2019-03-22T06:32:46.625Z,-0.19
2019-03-22T06:35:19.251Z,-0.02
2019-03-22T06:37:51.850Z,0.09
2019-03-22T06:40:24.515Z,0.18
2019-03-22T06:42:57.049Z,0.24
2019-03-22T06:45:29.595Z,0.31
2019-03-22T06:48:02.094Z,0.34
2019-03-22T06:50:34.993Z,0.49
2019-03-22T06:53:07.493Z,0.54
2019-03-22T06:55:40.019Z,0.59
2019-03-22T06:58:12.531Z,0.75
2019-03-22T07:00:45.061Z,0.84
2019-03-22T07:03:17.668Z,1.05
2019-03-22T07:05:50.217Z,1.20
2019-03-22T07:08:22.790Z,1.49
2019-03-22T07:10:55.315Z,1.59
2019-03-22T07:13:27.902Z,1.76
2019-03-22T07:16:00.435Z,1.91
2019-03-22T07:18:33.294Z,2.18
2019-03-22T07:21:05.975Z,2.25
2019-03-22T07:23:38.753Z,2.35
2019-03-22T07:26:12.027Z,2.57
2019-03-22T07:28:44.562Z,2.71
2019-03-22T07:31:17.104Z,2.92
2019-03-22T07:33:49.625Z,3.16
2019-03-22T07:36:22.232Z,3.33
2019-03-22T07:38:54.823Z,3.43
2019-03-22T07:41:27.369Z,3.76
2019-03-22T07:43:59.901Z,3.96
2019-03-22T07:46:32.446Z,4.31
2019-03-22T07:49:04.963Z,4.62
2019-03-22T07:51:38.531Z,4.84
2019-03-22T07:54:12.178Z,5.00
2019-03-22T07:56:44.708Z,5.19
2019-03-22T07:59:17.573Z,5.43
2019-03-22T08:01:51.177Z,5.64
2019-03-22T08:04:23.765Z,5.84
2019-03-22T08:06:56.287Z,5.98
2019-03-22T08:09:28.916Z,6.11
2019-03-22T08:12:01.513Z,6.21
2019-03-22T08:14:34.115Z,6.27
2019-03-22T08:17:06.767Z,6.36
2019-03-22T08:19:39.416Z,6.52
2019-03-22T08:22:13.174Z,6.63
2019-03-22T08:24:45.680Z,6.70
2019-03-22T08:27:18.171Z,6.78
2019-03-22T08:29:50.686Z,6.88
2019-03-22T08:32:23.213Z,7.02
2019-03-22T08:34:55.751Z,7.12
2019-03-22T08:37:28.233Z,7.21
2019-03-22T08:40:01.747Z,7.24
2019-03-22T08:42:34.235Z,7.34
2019-03-22T08:45:07.161Z,7.50
2019-03-22T08:47:39.749Z,7.58
2019-03-22T08:50:12.449Z,7.70
2019-03-22T08:52:45.078Z,7.84
2019-03-22T08:55:17.585Z,7.95
2019-03-22T08:57:50.145Z,7.96
2019-03-22T09:00:22.756Z,8.05
2019-03-22T09:02:55.264Z,8.15
2019-03-22T09:05:27.810Z,8.20
2019-03-22T09:08:00.376Z,8.30
2019-03-22T09:10:32.978Z,8.38
2019-03-22T09:13:05.554Z,8.56
2019-03-22T09:15:41.729Z,8.68
2019-03-22T09:18:15.415Z,8.86
2019-03-22T09:20:46.717Z,8.97
2019-03-22T09:23:19.231Z,9.00
2019-03-22T09:25:52.227Z,9.09
2019-03-22T09:28:24.866Z,9.21
2019-03-22T09:31:09.866Z,9.23
2019-03-22T09:33:31.875Z,9.34
2019-03-22T09:36:04.452Z,9.47
2019-03-22T09:38:37.086Z,9.43
2019-03-22T09:41:09.669Z,9.45
2019-03-22T09:43:42.312Z,9.62
2019-03-22T09:46:14.870Z,9.67
2019-03-22T09:48:47.704Z,9.86
2019-03-22T09:51:20.220Z,10.07
2019-03-22T09:53:52.876Z,10.06
2019-03-22T09:56:25.345Z,10.14
2019-03-22T09:58:57.879Z,10.20
2019-03-22T10:01:30.396Z,10.34
2019-03-22T10:04:02.960Z,10.39
2019-03-22T10:06:35.456Z,10.35
2019-03-22T10:09:09.808Z,10.42
2019-03-22T10:11:42.316Z,10.56
2019-03-22T10:14:14.905Z,10.67
2019-03-22T10:16:47.940Z,10.71
2019-03-22T10:19:20.621Z,10.83
2019-03-22T10:21:53.253Z,11.02
2019-03-22T10:24:25.934Z,11.28
2019-03-22T10:26:58.515Z,11.24
2019-03-22T10:29:31.102Z,11.32
2019-03-22T10:32:03.624Z,11.40
2019-03-22T10:34:36.171Z,11.50
2019-03-22T10:37:08.764Z,11.55
2019-03-22T10:39:41.795Z,11.67
2019-03-22T10:42:14.358Z,11.97
2019-03-22T10:44:46.875Z,12.00
2019-03-22T10:47:19.449Z,12.12
2019-03-22T10:49:52.069Z,12.10
2019-03-22T10:52:24.699Z,12.27
2019-03-22T10:54:57.231Z,12.57
2019-03-22T10:57:30.078Z,12.86
2019-03-22T11:00:02.603Z,12.58
2019-03-22T11:02:35.265Z,12.67
2019-03-22T11:05:10.313Z,12.57
2019-03-22T11:07:42.850Z,12.71
2019-03-22T11:10:15.639Z,12.78
2019-03-22T11:12:48.154Z,12.90
2019-03-22T11:15:20.883Z,12.92
2019-03-22T11:17:53.397Z,13.06
2019-03-22T11:20:26.092Z,13.12
2019-03-22T11:22:58.743Z,13.42
2019-03-22T11:25:31.271Z,13.59
2019-03-22T11:28:03.974Z,13.65
2019-03-22T11:30:36.580Z,13.49
2019-03-22T11:33:09.208Z,13.59
2019-03-22T11:35:41.813Z,13.89
2019-03-22T11:38:14.410Z,14.18
2019-03-22T11:40:47.228Z,13.97
2019-03-22T11:43:20.793Z,14.10
2019-03-22T11:45:53.650Z,14.16
2019-03-22T11:48:26.255Z,14.13
2019-03-22T11:50:58.953Z,14.23
2019-03-22T11:53:31.487Z,14.40
2019-03-22T11:56:04.107Z,14.56
2019-03-22T11:58:37.282Z,14.62
2019-03-22T12:01:19.155Z,14.88
2019-03-22T12:03:44.179Z,15.09
2019-03-22T12:06:16.869Z,15.28
2019-03-22T12:08:49.552Z,15.36
2019-03-22T12:11:22.221Z,15.46
2019-03-22T12:13:54.829Z,15.57
2019-03-22T12:16:27.374Z,15.36
2019-03-22T12:18:59.931Z,15.79
2019-03-22T12:21:33.124Z,16.01
2019-03-22T12:24:05.854Z,15.77
2019-03-22T12:26:38.387Z,15.61
2019-03-22T12:29:12.135Z,15.67
2019-03-22T12:31:44.666Z,15.79
2019-03-22T12:34:17.192Z,15.77
2019-03-22T12:36:49.793Z,15.59
2019-03-22T12:39:22.454Z,15.68
2019-03-22T12:41:55.041Z,15.64
2019-03-22T12:44:27.808Z,15.72
2019-03-22T12:47:00.505Z,16.13
2019-03-22T12:49:33.045Z,16.08
2019-03-22T12:52:05.675Z,16.00
2019-03-22T12:54:38.274Z,16.12
2019-03-22T12:57:12.719Z,16.50
2019-03-22T12:59:45.276Z,16.54
2019-03-22T13:02:17.801Z,16.72
2019-03-22T13:04:50.328Z,16.85
2019-03-22T13:07:22.962Z,17.16
2019-03-22T13:09:55.547Z,17.42
2019-03-22T13:12:28.099Z,17.05
2019-03-22T13:15:00.623Z,17.24
2019-03-22T13:17:33.158Z,16.57
2019-03-22T13:20:09.150Z,16.39
2019-03-22T13:22:41.572Z,16.20
2019-03-22T13:25:15.415Z,16.24
2019-03-22T13:27:48.020Z,16.31
2019-03-22T13:30:37.952Z,16.34
2019-03-22T13:33:10.497Z,16.29
2019-03-22T13:35:43.016Z,16.40
2019-03-22T13:38:15.623Z,16.42
2019-03-22T13:40:48.141Z,16.51
2019-03-22T13:43:21.013Z,16.58
2019-03-22T13:45:53.539Z,16.48
2019-03-22T13:48:26.046Z,16.53
2019-03-22T13:50:58.586Z,16.55
2019-03-22T13:53:31.179Z,16.83
2019-03-22T13:56:03.883Z,16.80
2019-03-22T13:58:37.372Z,16.98
2019-03-22T14:01:10.396Z,17.11
2019-03-22T14:03:42.908Z,17.44
2019-03-22T14:06:15.437Z,17.48
2019-03-22T14:08:48.023Z,17.51
2019-03-22T14:11:20.620Z,17.36
2019-03-22T14:13:53.142Z,17.49
2019-03-22T14:16:25.687Z,17.43
2019-03-22T14:19:00.141Z,17.52
2019-03-22T14:21:32.784Z,17.50
2019-03-22T14:24:05.539Z,17.45
2019-03-22T14:26:38.165Z,17.50
2019-03-22T14:29:11.922Z,17.47
2019-03-22T14:31:44.472Z,17.40
2019-03-22T14:34:17.124Z,17.32
2019-03-22T14:36:49.648Z,17.26
2019-03-22T14:39:22.149Z,17.21
2019-03-22T14:41:54.690Z,17.22
2019-03-22T14:44:28.296Z,17.18
2019-03-22T14:47:00.975Z,17.11
2019-03-22T14:49:33.841Z,17.00
2019-03-22T14:52:06.488Z,16.90
2019-03-22T14:54:39.012Z,16.85
2019-03-22T14:57:11.892Z,16.76
2019-03-22T14:59:44.406Z,16.65
2019-03-22T15:02:17.024Z,16.64
2019-03-22T15:04:49.546Z,16.61
2019-03-22T15:07:22.149Z,16.55
2019-03-22T15:09:54.669Z,16.42
2019-03-22T15:12:27.183Z,16.42
2019-03-22T15:15:15.605Z,16.44
2019-03-22T15:18:16.340Z,16.73
2019-03-22T15:21:08.823Z,17.13
2019-03-22T15:24:15.767Z,17.76
2019-03-22T15:27:19.559Z,18.19
2019-03-22T15:30:10.834Z,18.57
2019-03-22T15:32:51.607Z,18.68
2019-03-22T15:35:37.693Z,19.14
2019-03-22T15:38:32.111Z,18.69
2019-03-22T15:41:05.030Z,18.66
2019-03-22T15:43:37.558Z,18.68
2019-03-22T15:46:10.175Z,19.16
2019-03-22T15:48:42.799Z,19.79
2019-03-22T15:51:15.340Z,19.92
2019-03-22T15:53:48.238Z,19.73
2019-03-22T15:56:20.874Z,19.70
2019-03-22T15:58:53.467Z,19.95
2019-03-22T16:01:26.173Z,19.77
2019-03-22T16:03:58.776Z,19.66
2019-03-22T16:06:31.391Z,19.88
2019-03-22T16:09:05.731Z,19.81
2019-03-22T16:11:38.283Z,20.18
2019-03-22T16:14:12.115Z,20.22
2019-03-22T16:16:45.638Z,20.41
2019-03-22T16:19:18.320Z,20.44
2019-03-22T16:21:50.859Z,20.71
2019-03-22T16:24:23.739Z,20.60
2019-03-22T16:26:56.311Z,20.59
2019-03-22T16:29:28.930Z,20.56
2019-03-22T16:32:01.481Z,20.52
2019-03-22T16:34:33.996Z,20.48
2019-03-22T16:37:06.615Z,20.49
2019-03-22T16:39:39.217Z,20.58
2019-03-22T16:42:12.186Z,20.59
2019-03-22T16:44:44.789Z,20.70
2019-03-22T16:47:17.311Z,20.70
2019-03-22T16:49:49.840Z,20.69
2019-03-22T16:52:22.400Z,20.52
2019-03-22T16:54:54.926Z,20.29
2019-03-22T16:57:27.465Z,19.99
2019-03-22T17:00:00.064Z,19.46
2019-03-22T17:02:32.661Z,18.90
2019-03-22T17:05:05.392Z,18.37
2019-03-22T17:07:37.964Z,17.96
2019-03-22T17:10:11.254Z,17.60
2019-03-22T17:12:43.776Z,17.30
2019-03-22T17:15:16.489Z,17.08
2019-03-22T17:17:49.096Z,16.87
2019-03-22T17:20:21.791Z,16.60
2019-03-22T17:22:54.380Z,16.49
2019-03-22T17:25:27.173Z,16.26
2019-03-22T17:27:59.779Z,15.91
2019-03-22T17:30:32.690Z,15.40
2019-03-22T17:33:05.505Z,15.06
2019-03-22T17:35:39.096Z,14.71
2019-03-22T17:38:11.954Z,14.39
2019-03-22T17:40:44.562Z,14.12
2019-03-22T17:43:17.208Z,13.97
2019-03-22T17:45:50.097Z,13.75
2019-03-22T17:48:22.985Z,13.54
2019-03-22T17:50:55.586Z,13.30
2019-03-22T17:53:28.182Z,13.03
2019-03-22T17:56:01.979Z,12.94
2019-03-22T17:58:34.751Z,12.69
2019-03-22T18:01:07.352Z,12.44
2019-03-22T18:03:40.841Z,12.22
2019-03-22T18:06:13.523Z,12.12
2019-03-22T18:08:46.361Z,12.03
2019-03-22T18:11:19.391Z,11.90
2019-03-22T18:13:51.981Z,11.72
2019-03-22T18:16:24.547Z,11.57
2019-03-22T18:18:57.334Z,11.54
2019-03-22T18:21:30.189Z,11.48
2019-03-22T18:24:03.029Z,11.53
2019-03-22T18:26:36.134Z,11.55
2019-03-22T18:29:09.007Z,11.42
2019-03-22T18:31:41.547Z,11.34
2019-03-22T18:34:14.113Z,11.29
2019-03-22T18:36:46.625Z,11.26
2019-03-22T18:39:19.168Z,11.13
2019-03-22T18:41:51.985Z,10.99
2019-03-22T18:44:24.726Z,10.87
2019-03-22T18:46:57.523Z,10.68
2019-03-22T18:49:30.108Z,10.52
2019-03-22T18:52:02.710Z,10.30
2019-03-22T18:54:35.575Z,10.15
2019-03-22T18:57:08.308Z,9.94
2019-03-22T18:59:40.961Z,9.86
2019-03-22T19:02:13.501Z,9.71
2019-03-22T19:04:46.116Z,9.61
2019-03-22T19:07:18.792Z,9.48
2019-03-22T19:09:52.443Z,9.38
2019-03-22T19:12:24.971Z,9.33
2019-03-22T19:14:57.642Z,9.48
2019-03-22T19:17:30.398Z,9.39
2019-03-22T19:20:03.110Z,9.34
2019-03-22T19:22:35.787Z,9.05
2019-03-22T19:25:09.226Z,9.48
2019-03-22T19:27:42.064Z,9.27
2019-03-22T19:30:14.982Z,9.02
2019-03-22T19:35:39.324Z,8.80
2019-03-22T19:38:12.449Z,8.48
2019-03-22T19:40:45.052Z,8.23
2019-03-22T19:43:17.637Z,7.94
2019-03-22T19:45:50.244Z,7.90
2019-03-22T19:48:22.825Z,7.82
2019-03-22T19:50:55.356Z,7.80
2019-03-22T19:53:27.950Z,7.73
2019-03-22T19:56:00.565Z,7.64
2019-03-22T19:58:33.132Z,7.69
2019-03-22T20:01:05.797Z,7.75
2019-03-22T20:03:38.508Z,7.82
2019-03-22T20:06:11.729Z,7.63
2019-03-22T20:08:44.974Z,7.43
2019-03-22T20:11:17.689Z,7.21
2019-03-22T20:13:50.322Z,7.17
2019-03-22T20:16:22.929Z,7.19
2019-03-22T20:18:55.498Z,7.17
2019-03-22T20:21:28.651Z,7.07
2019-03-22T20:24:01.157Z,7.01
2019-03-22T20:26:34.211Z,6.93
2019-03-22T20:29:06.862Z,6.81
2019-03-22T20:31:39.931Z,6.65
2019-03-22T20:34:12.706Z,6.59
2019-03-22T20:36:45.683Z,6.46
2019-03-22T20:39:18.310Z,6.30
2019-03-22T20:41:50.895Z,6.34
2019-03-22T20:44:33.407Z,6.43
2019-03-22T20:46:57.802Z,6.40
2019-03-22T20:49:30.420Z,6.28
2019-03-22T20:52:02.952Z,6.20
2019-03-22T20:54:35.546Z,6.09
2019-03-22T20:57:08.200Z,6.05
2019-03-22T20:59:40.767Z,6.05
2019-03-22T21:02:13.670Z,6.03
2019-03-22T21:04:46.279Z,6.10
2019-03-22T21:07:18.954Z,6.05
2019-03-22T21:09:51.535Z,6.15
2019-03-22T21:12:24.627Z,6.26
2019-03-22T21:14:57.269Z,6.18
2019-03-22T21:17:29.830Z,6.17
2019-03-22T21:20:02.659Z,5.98
2019-03-22T21:22:35.923Z,5.77
2019-03-22T21:25:08.856Z,5.60
2019-03-22T21:27:41.509Z,5.35
2019-03-22T21:30:14.350Z,5.39
2019-03-22T21:32:47.361Z,5.42
2019-03-22T21:35:22.761Z,5.27
2019-03-22T21:37:54.465Z,5.17
2019-03-22T21:40:27.271Z,5.01
2019-03-22T21:43:00.224Z,4.86
2019-03-22T21:45:32.942Z,4.79
2019-03-22T21:48:05.756Z,4.76
2019-03-22T21:50:38.389Z,4.68
2019-03-22T21:53:12.328Z,4.57
2019-03-22T21:55:44.901Z,4.62
2019-03-22T21:58:17.484Z,4.60
2019-03-22T22:00:50.390Z,4.58
2019-03-22T22:03:22.971Z,4.50
2019-03-22T22:05:56.584Z,4.43
2019-03-22T22:08:29.124Z,4.42
2019-03-22T22:11:01.730Z,4.40
2019-03-22T22:13:34.296Z,4.22
2019-03-22T22:16:07.052Z,4.28
2019-03-22T22:18:39.793Z,4.28
2019-03-22T22:21:12.365Z,4.23
2019-03-22T22:23:45.213Z,4.12
2019-03-22T22:26:17.791Z,4.06
2019-03-22T22:28:50.409Z,3.99
2019-03-22T22:31:22.999Z,3.99
2019-03-22T22:33:55.509Z,3.91
2019-03-22T22:36:28.103Z,3.79
2019-03-22T22:39:01.829Z,3.70
2019-03-22T22:41:35.974Z,3.61
2019-03-22T22:44:08.567Z,3.64
2019-03-22T22:46:42.219Z,3.63
2019-03-22T22:49:14.819Z,3.52
2019-03-22T22:51:47.441Z,3.44
2019-03-22T22:54:19.967Z,3.42
2019-03-22T22:56:52.481Z,3.48
2019-03-22T22:59:25.314Z,3.48
2019-03-22T23:01:57.876Z,3.44
2019-03-22T23:04:32.213Z,3.41
2019-03-22T23:07:04.905Z,3.34
2019-03-22T23:09:37.486Z,3.19
2019-03-22T23:12:09.992Z,3.10
2019-03-22T23:14:42.534Z,3.07
2019-03-22T23:17:15.126Z,2.99
2019-03-22T23:19:47.649Z,2.96
2019-03-22T23:22:20.147Z,2.94
2019-03-22T23:24:52.667Z,2.91
2019-03-22T23:27:25.268Z,2.92
2019-03-22T23:29:57.792Z,2.84
2019-03-22T23:32:30.373Z,2.83
2019-03-22T23:35:02.904Z,2.76
2019-03-22T23:37:35.489Z,2.70
2019-03-22T23:40:08.274Z,2.66
2019-03-22T23:42:41.220Z,2.64
2019-03-22T23:45:13.986Z,2.58
2019-03-22T23:47:46.504Z,2.59
2019-03-22T23:50:19.113Z,2.59
2019-03-22T23:52:51.784Z,2.56
2019-03-22T23:55:24.386Z,2.47
2019-03-22T23:57:56.898Z,2.43
